createdAt,value
2019-01-20T00:13:56.614Z,61.2
2019-01-20T00:29:07.228Z,62.2
2019-01-20T00:44:16.260Z,65.8
2019-01-20T00:59:26.097Z,61.1
2019-01-20T01:14:35.904Z,60.1
2019-01-20T01:29:45.713Z,61.1
2019-01-20T01:44:55.500Z,60.4
2019-01-20T02:00:05.361Z,64.7
2019-01-20T02:15:13.859Z,65.5
2019-01-20T02:30:24.864Z,60.5
2019-01-20T02:45:34.550Z,63.6
2019-01-20T03:00:44.272Z,61.6
2019-01-20T03:15:49.292Z,62
2019-01-20T03:31:03.983Z,61.7
2019-01-20T03:46:13.760Z,62.5
2019-01-20T04:01:23.640Z,62.2
2019-01-20T04:16:33.147Z,62.1
2019-01-20T04:31:42.864Z,63
2019-01-20T04:46:52.673Z,62.8
2019-01-20T05:02:02.342Z,63.2
2019-01-20T05:17:11.949Z,64.2
2019-01-20T05:32:21.839Z,64.5
2019-01-20T05:47:33.581Z,64.7
2019-01-20T06:02:41.149Z,65
2019-01-20T06:17:50.462Z,64.2
2019-01-20T06:33:00.575Z,63.6
2019-01-20T06:48:09.265Z,63.4
2019-01-20T07:03:19.189Z,61.9
2019-01-20T07:18:28.196Z,60.8
2019-01-20T07:33:32.860Z,62.1
2019-01-20T07:48:47.131Z,63.9
2019-01-20T08:03:56.531Z,62.5
2019-01-20T08:19:06.246Z,61.7
2019-01-20T08:34:09.012Z,61.3
2019-01-20T08:49:25.408Z,58.1
2019-01-20T09:04:35.103Z,59.7
2019-01-20T09:19:45.027Z,57.6
2019-01-20T09:34:55.179Z,55.6
2019-01-20T09:50:05.483Z,56.2
2019-01-20T10:05:17.273Z,53.5
2019-01-20T10:20:26.453Z,54.8
2019-01-20T10:35:37.747Z,52.5
2019-01-20T10:50:47.823Z,44.5
2019-01-20T11:06:06.737Z,40
2019-01-20T11:21:22.810Z,34.3
2019-01-20T11:36:38.712Z,35.1
2019-01-20T11:51:52.763Z,35.6
2019-01-20T12:07:06.379Z,36.8
2019-01-20T12:22:19.405Z,33.4
2019-01-20T12:37:34.900Z,30.1
2019-01-20T12:52:51.988Z,26.4
2019-01-20T13:08:09.624Z,25.9
2019-01-20T13:23:26.247Z,25.9
2019-01-20T13:38:28.820Z,23.7
2019-01-20T13:53:55.022Z,24.4
2019-01-20T14:09:17.404Z,24.2
2019-01-20T14:24:34.724Z,23.8
2019-01-20T14:39:50.263Z,27.9
2019-01-20T14:55:04.551Z,27.4
2019-01-20T15:10:17.882Z,31.7
2019-01-20T15:25:29.643Z,35.2
2019-01-20T15:40:42.787Z,36.7
2019-01-20T15:55:54.770Z,40
2019-01-20T16:11:06.174Z,41.5
2019-01-20T16:26:09.676Z,45.2
2019-01-20T16:41:29.191Z,46.2
2019-01-20T16:56:40.370Z,48.6
2019-01-20T17:11:51.489Z,49.5
2019-01-20T17:27:02.454Z,51
2019-01-20T17:42:13.331Z,51.7
2019-01-20T17:57:24.247Z,53.1
2019-01-20T18:12:35.054Z,53.8
2019-01-20T18:27:45.711Z,55.2
2019-01-20T18:42:51.343Z,55.8
2019-01-20T18:58:07.046Z,57.6
2019-01-20T19:13:18.710Z,58.3
2019-01-20T19:28:28.165Z,58.8
2019-01-20T19:43:38.648Z,59.6
2019-01-20T19:58:49.145Z,59.9
2019-01-20T20:13:59.480Z,60.4
2019-01-20T20:29:09.766Z,60.8
2019-01-20T20:44:20.113Z,60.5
2019-01-20T20:59:29.362Z,61.4
2019-01-20T21:14:40.570Z,61.5
2019-01-20T21:29:50.986Z,69.9
2019-01-20T21:45:02.176Z,57.6
2019-01-20T22:00:05.519Z,59.7
2019-01-20T22:15:22.893Z,60.9
2019-01-20T22:30:33.095Z,60.8
2019-01-20T22:45:43.600Z,61.6
2019-01-20T23:00:54.219Z,58
2019-01-20T23:16:04.309Z,59.6
2019-01-20T23:31:14.313Z,60.9
2019-01-20T23:46:24.193Z,61.1
